Time;durP1;ratioP1;P1;durP2;ratioP2;P2;SDS_P1;SDS_P2;PMS_P1;PMS_P2;Temp;Humidity;BMP_temperature;BMP_pressure;BME280_temperature;BME280_humidity;BME280_pressure;Samples;Min_cycle;Max_cycle;Signal;HPM_P1;HPM_P2
2023/01/04 00:01:00;;;;;;;3.92;1.65;;;;;;;;;;5087960;28;20039;-64
2023/01/04 00:03:27;;;;;;;8.00;2.63;;;;;;;;;;5100167;28;20048;-64
2023/01/04 00:05:53;;;;;;;4.20;1.98;;;;;;;;;;5100795;28;20035;-64
2023/01/04 00:08:19;;;;;;;3.97;2.15;;;;;;;;;;5098237;28;20493;-64
2023/01/04 00:10:45;;;;;;;3.92;2.15;;;;;;;;;;5096457;28;20032;-64
2023/01/04 00:13:11;;;;;;;3.67;1.90;;;;;;;;;;5087651;28;20035;-64
2023/01/04 00:15:37;;;;;;;4.65;2.10;;;;;;;;;;5100919;28;20130;-64
2023/01/04 00:18:03;;;;;;;4.78;2.13;;;;;;;;;;5084333;28;20048;-64
2023/01/04 00:20:29;;;;;;;4.47;1.95;;;;;;;;;;5087805;28;20071;-64
2023/01/04 00:22:55;;;;;;;9.23;3.05;;;;;;;;;;5097407;28;20520;-64
2023/01/04 00:25:21;;;;;;;5.68;1.92;;;;;;;;;;5098417;28;20071;-64
2023/01/04 00:27:47;;;;;;;3.95;1.90;;;;;;;;;;5087388;28;20082;-64
2023/01/04 00:30:13;;;;;;;4.10;1.77;;;;;;;;;;5087329;28;20071;-64
2023/01/04 00:32:39;;;;;;;3.95;1.73;;;;;;;;;;5099197;28;20490;-64
2023/01/04 00:35:05;;;;;;;4.85;1.83;;;;;;;;;;5088573;28;20046;-64
2023/01/04 00:37:31;;;;;;;4.45;2.10;;;;;;;;;;5087245;28;20067;-64
2023/01/04 00:39:57;;;;;;;3.40;2.17;;;;;;;;;;5097261;28;20047;-64
2023/01/04 00:42:23;;;;;;;6.07;2.20;;;;;;;;;;5087385;28;20074;-64
2023/01/04 00:44:49;;;;;;;4.20;2.25;;;;;;;;;;5102482;28;20071;-64
2023/01/04 00:47:15;;;;;;;3.83;2.05;;;;;;;;;;5102321;28;20046;-64
2023/01/04 00:49:41;;;;;;;3.45;1.75;;;;;;;;;;5100111;28;20044;-64
2023/01/04 00:52:08;;;;;;;3.47;2.08;;;;;;;;;;5086362;28;20050;-64
2023/01/04 00:54:34;;;;;;;6.22;1.90;;;;;;;;;;5087557;28;20063;-64
2023/01/04 00:57:01;;;;;;;5.97;1.75;;;;;;;;;;5088181;28;20071;-64
2023/01/04 00:59:27;;;;;;;5.50;2.40;;;;;;;;;;5104060;28;20047;-64
2023/01/04 01:01:53;;;;;;;4.95;2.13;;;;;;;;;;5106587;28;20422;-64
2023/01/04 01:04:21;;;;;;;3.40;2.25;;;;;;;;;;5105916;28;20044;-64
2023/01/04 01:06:47;;;;;;;5.93;2.40;;;;;;;;;;5104329;28;20035;-64
2023/01/04 01:09:13;;;;;;;5.70;2.25;;;;;;;;;;5088159;28;20047;-64
2023/01/04 01:11:39;;;;;;;8.48;2.50;;;;;;;;;;5088019;28;20083;-64
2023/01/04 01:14:06;;;;;;;4.63;2.65;;;;;;;;;;5087275;28;20036;-64
2023/01/04 01:16:32;;;;;;;5.35;2.30;;;;;;;;;;5104795;28;20081;-64
2023/01/04 01:18:58;;;;;;;2.45;1.67;;;;;;;;;;5106030;28;20048;-64
2023/01/04 01:21:26;;;;;;;6.80;2.47;;;;;;;;;;5086455;28;20054;-64
2023/01/04 01:23:52;;;;;;;5.00;2.08;;;;;;;;;;5086690;28;20044;-64
2023/01/04 01:26:19;;;;;;;3.80;2.10;;;;;;;;;;5087281;28;20176;-64
2023/01/04 01:28:45;;;;;;;5.25;2.03;;;;;;;;;;5086566;28;20055;-64
2023/01/04 01:31:15;;;;;;;5.63;2.10;;;;;;;;;;5106576;28;20038;-64
2023/01/04 01:33:42;;;;;;;3.05;1.95;;;;;;;;;;5087426;28;20453;-64
2023/01/04 01:36:09;;;;;;;3.17;2.00;;;;;;;;;;5086886;28;20043;-64
2023/01/04 01:38:36;;;;;;;6.65;2.17;;;;;;;;;;5104985;28;20504;-64
2023/01/04 01:41:02;;;;;;;2.97;1.80;;;;;;;;;;5105781;28;20032;-64
2023/01/04 01:44:07;;;;;;;2.42;1.95;;;;;;;;;;5085907;28;20142;-64
2023/01/04 01:46:39;;;;;;;4.40;1.65;;;;;;;;;;5001903;28;20053;-64
2023/01/04 01:49:21;;;;;;;4.43;1.83;;;;;;;;;;5001709;28;20173;-64
2023/01/04 01:51:47;;;;;;;1.60;1.40;;;;;;;;;;5065150;28;20055;-64
2023/01/04 01:54:16;;;;;;;4.82;1.88;;;;;;;;;;5104711;28;20040;-64
2023/01/04 01:56:43;;;;;;;3.80;1.90;;;;;;;;;;5086209;28;20039;-63
2023/01/04 01:59:10;;;;;;;2.47;1.35;;;;;;;;;;5087017;28;20039;-64
2023/01/04 02:01:36;;;;;;;2.35;1.42;;;;;;;;;;5104243;28;20757;-64
2023/01/04 02:04:03;;;;;;;3.58;1.73;;;;;;;;;;5086145;28;20146;-64
2023/01/04 02:06:32;;;;;;;2.38;1.80;;;;;;;;;;5085823;28;20054;-64
2023/01/04 02:08:59;;;;;;;2.88;1.50;;;;;;;;;;5087248;28;20409;-64
2023/01/04 02:11:25;;;;;;;2.20;1.33;;;;;;;;;;5085119;28;20040;-64
2023/01/04 02:16:45;;;;;;;2.67;1.90;;;;;;;;;;5092566;28;20039;-63
2023/01/04 02:19:33;;;;;;;3.63;1.20;;;;;;;;;;5096436;28;20044;-64
2023/01/04 02:22:18;;;;;;;1.23;1.13;;;;;;;;;;5096042;28;20040;-64
2023/01/04 02:25:03;;;;;;;2.17;1.30;;;;;;;;;;5087577;28;20052;-64
2023/01/04 02:27:29;;;;;;;1.67;1.20;;;;;;;;;;5095700;28;20052;-64
2023/01/04 02:30:01;;;;;;;2.22;1.27;;;;;;;;;;5085759;28;20036;-65
2023/01/04 02:32:39;;;;;;;1.58;1.00;;;;;;;;;;5097865;28;20478;-64
2023/01/04 02:35:15;;;;;;;1.10;1.00;;;;;;;;;;5096807;28;20040;-64
2023/01/04 02:37:57;;;;;;;1.17;1.05;;;;;;;;;;5073783;28;20502;-64
2023/01/04 02:40:23;;;;;;;1.40;1.00;;;;;;;;;;5071673;28;20110;-64
2023/01/04 02:45:53;;;;;;;1.10;0.90;;;;;;;;;;5076169;28;20052;-64
2023/01/04 02:51:04;;;;;;;1.02;0.93;;;;;;;;;;5082868;28;20056;-64
2023/01/04 02:53:35;;;;;;;1.55;0.60;;;;;;;;;;5081282;28;20051;-64
2023/01/04 02:56:13;;;;;;;1.73;0.88;;;;;;;;;;5083973;28;20107;-64
2023/01/04 02:59:15;;;;;;;1.02;0.85;;;;;;;;;;5083003;28;20047;-64
2023/01/04 03:07:37;;;;;;;1.70;0.80;;;;;;;;;;5082815;28;20040;-64
2023/01/04 03:10:07;;;;;;;1.25;0.75;;;;;;;;;;5077581;28;20387;-64
2023/01/04 03:12:35;;;;;;;0.60;0.60;;;;;;;;;;5083423;28;20393;-64
2023/01/04 03:15:10;;;;;;;0.77;0.60;;;;;;;;;;5080568;28;20126;-65
2023/01/04 03:17:42;;;;;;;0.47;0.47;;;;;;;;;;5072762;28;20445;-64
2023/01/04 03:20:09;;;;;;;0.77;0.77;;;;;;;;;;5071713;28;20091;-64
2023/01/04 03:36:44;;;;;;;0.65;0.57;;;;;;;;;;5084164;28;20051;-64
2023/01/04 03:50:44;;;;;;;0.47;0.47;;;;;;;;;;5108017;28;20047;-64
2023/01/04 03:53:12;;;;;;;1.08;0.50;;;;;;;;;;5089748;28;20424;-64
2023/01/04 03:55:39;;;;;;;0.38;0.38;;;;;;;;;;5088558;28;20055;-64
2023/01/04 03:58:05;;;;;;;0.85;0.57;;;;;;;;;;5088459;28;20047;-64
2023/01/04 04:00:31;;;;;;;0.57;0.50;;;;;;;;;;5106814;28;20051;-64
2023/01/04 04:03:06;;;;;;;0.40;0.40;;;;;;;;;;5088500;28;20044;-64
2023/01/04 04:08:27;;;;;;;0.70;0.70;;;;;;;;;;5107101;28;20059;-64
2023/01/04 04:10:54;;;;;;;1.48;0.80;;;;;;;;;;5099014;28;20048;-64
2023/01/04 04:13:20;;;;;;;0.70;0.70;;;;;;;;;;5088642;28;20071;-64
2023/01/04 04:15:46;;;;;;;2.20;0.70;;;;;;;;;;5100425;28;20063;-64
2023/01/04 04:18:12;;;;;;;1.05;0.95;;;;;;;;;;5097961;28;20074;-64
2023/01/04 04:20:38;;;;;;;1.55;1.45;;;;;;;;;;5107079;28;20055;-64
2023/01/04 04:23:04;;;;;;;1.40;1.30;;;;;;;;;;5106490;28;20044;-64
2023/01/04 04:25:30;;;;;;;1.70;1.60;;;;;;;;;;5106327;28;20091;-65
2023/01/04 04:27:56;;;;;;;1.63;1.50;;;;;;;;;;5088771;28;20119;-64
2023/01/04 04:30:22;;;;;;;1.52;1.42;;;;;;;;;;5106024;28;20757;-64
2023/01/04 04:32:48;;;;;;;1.67;1.58;;;;;;;;;;5105570;28;20043;-64
2023/01/04 04:35:14;;;;;;;1.42;1.33;;;;;;;;;;5087931;28;20093;-64
2023/01/04 04:37:40;;;;;;;1.50;1.40;;;;;;;;;;5105848;28;20055;-64
2023/01/04 04:41:36;;;;;;;2.08;1.88;;;;;;;;;;5100940;28;20470;-64
2023/01/04 04:42:53;;;;;;;2.10;1.90;;;;;;;;;;5088378;28;20043;-64
2023/01/04 04:45:19;;;;;;;2.50;1.80;;;;;;;;;;5087924;28;20059;-65
2023/01/04 04:47:44;;;;;;;2.08;1.73;;;;;;;;;;5087881;28;20118;-64
2023/01/04 04:50:10;;;;;;;1.70;1.60;;;;;;;;;;5088604;28;20043;-64
2023/01/04 04:52:36;;;;;;;3.13;2.40;;;;;;;;;;5105066;28;20039;-64
2023/01/04 04:55:03;;;;;;;2.17;1.98;;;;;;;;;;5086301;28;20872;-64
2023/01/04 04:57:29;;;;;;;1.92;1.83;;;;;;;;;;5100743;28;20051;-64
2023/01/04 04:59:55;;;;;;;2.75;2.55;;;;;;;;;;5087393;28;20126;-64
2023/01/04 05:02:21;;;;;;;2.70;2.50;;;;;;;;;;5088044;28;20481;-64
2023/01/04 05:04:47;;;;;;;2.33;2.20;;;;;;;;;;5087596;28;20062;-64
2023/01/04 05:07:12;;;;;;;2.00;1.90;;;;;;;;;;5087121;28;20486;-65
2023/01/04 05:09:38;;;;;;;2.60;2.40;;;;;;;;;;5106338;28;20138;-64
2023/01/04 05:14:49;;;;;;;3.60;2.05;;;;;;;;;;5105388;28;20044;-64
2023/01/04 05:17:16;;;;;;;2.38;2.28;;;;;;;;;;5105776;28;20126;-64
2023/01/04 05:19:42;;;;;;;2.42;2.33;;;;;;;;;;5086931;28;20082;-64
2023/01/04 05:22:08;;;;;;;2.38;2.05;;;;;;;;;;5088384;28;20058;-64
2023/01/04 05:24:34;;;;;;;2.42;2.22;;;;;;;;;;5087020;28;20047;-65
2023/01/04 05:27:00;;;;;;;2.85;2.55;;;;;;;;;;5085902;28;20127;-64
2023/01/04 05:32:10;;;;;;;2.35;2.10;;;;;;;;;;5092460;28;20071;-64
2023/01/04 05:34:36;;;;;;;2.00;1.90;;;;;;;;;;5102417;28;20477;-64
2023/01/04 05:37:02;;;;;;;2.20;2.10;;;;;;;;;;5087248;28;20054;-64
2023/01/04 05:39:29;;;;;;;2.30;2.08;;;;;;;;;;5104860;28;20083;-65
2023/01/04 05:44:40;;;;;;;1.70;1.50;;;;;;;;;;5104960;28;20393;-64
2023/01/04 05:47:06;;;;;;;1.70;1.40;;;;;;;;;;5087207;28;20104;-65
2023/01/04 05:49:32;;;;;;;1.13;1.13;;;;;;;;;;5085898;28;20331;-65
2023/01/04 05:51:58;;;;;;;1.00;0.90;;;;;;;;;;5105255;28;20049;-65
2023/01/04 05:54:24;;;;;;;1.83;0.80;;;;;;;;;;5105309;28;20089;-64
2023/01/04 05:56:50;;;;;;;1.35;1.10;;;;;;;;;;5103957;28;20073;-65
2023/01/04 05:59:16;;;;;;;0.93;0.93;;;;;;;;;;5104818;28;20409;-65
2023/01/04 06:01:42;;;;;;;0.85;0.80;;;;;;;;;;5104634;28;20109;-65
2023/01/04 06:04:08;;;;;;;0.80;0.80;;;;;;;;;;5105093;28;20043;-65
2023/01/04 06:06:34;;;;;;;0.90;0.90;;;;;;;;;;5104752;28;20093;-65
2023/01/04 06:09:00;;;;;;;1.00;0.90;;;;;;;;;;5104204;28;20122;-65
2023/01/04 06:11:26;;;;;;;0.95;0.95;;;;;;;;;;5104898;28;20511;-65
2023/01/04 06:13:52;;;;;;;0.90;0.90;;;;;;;;;;5085826;28;20048;-65
2023/01/04 06:16:18;;;;;;;1.83;1.20;;;;;;;;;;5086032;28;20461;-65
2023/01/04 06:18:44;;;;;;;1.35;0.95;;;;;;;;;;5103990;28;20054;-65
2023/01/04 06:21:10;;;;;;;1.55;1.10;;;;;;;;;;5105571;28;20375;-65
2023/01/04 06:23:36;;;;;;;2.05;1.35;;;;;;;;;;5085239;28;20054;-65
2023/01/04 06:26:02;;;;;;;3.35;1.40;;;;;;;;;;5086570;28;20046;-65
2023/01/04 06:28:28;;;;;;;1.48;1.00;;;;;;;;;;5100002;28;20480;-64
2023/01/04 06:30:54;;;;;;;1.42;1.20;;;;;;;;;;5085618;28;20035;-65
2023/01/04 06:33:20;;;;;;;2.28;1.30;;;;;;;;;;5086463;28;20040;-65
2023/01/04 06:35:56;;;;;;;1.25;1.00;;;;;;;;;;5098713;28;20075;-65
2023/01/04 06:38:22;;;;;;;3.42;0.90;;;;;;;;;;5085327;28;20134;-65
2023/01/04 06:40:48;;;;;;;2.60;1.02;;;;;;;;;;5085099;28;20111;-65
2023/01/04 06:43:14;;;;;;;1.45;1.08;;;;;;;;;;5086073;28;20634;-65
2023/01/04 06:45:41;;;;;;;1.15;0.70;;;;;;;;;;5084940;28;20053;-65
2023/01/04 06:48:07;;;;;;;1.27;0.88;;;;;;;;;;5083862;28;20123;-65
2023/01/04 06:50:33;;;;;;;0.70;0.70;;;;;;;;;;5098352;28;20477;-65
2023/01/04 06:52:59;;;;;;;2.33;0.80;;;;;;;;;;5084385;28;20051;-65
2023/01/04 06:55:25;;;;;;;3.25;1.25;;;;;;;;;;5084769;28;20045;-65
2023/01/04 06:57:51;;;;;;;1.27;0.70;;;;;;;;;;5102845;28;20040;-65
2023/01/04 07:00:17;;;;;;;1.63;0.93;;;;;;;;;;5105016;28;20042;-65
2023/01/04 07:02:43;;;;;;;1.92;1.13;;;;;;;;;;5100345;28;20603;-65
2023/01/04 07:05:09;;;;;;;1.95;1.20;;;;;;;;;;5102885;28;20050;-65
2023/01/04 07:07:35;;;;;;;4.35;1.73;;;;;;;;;;5087062;28;20040;-65
2023/01/04 07:10:01;;;;;;;3.03;1.52;;;;;;;;;;5099597;28;20247;-65
2023/01/04 07:12:27;;;;;;;4.18;1.33;;;;;;;;;;5101508;28;20078;-65
2023/01/04 07:14:53;;;;;;;6.53;2.58;;;;;;;;;;5101865;28;20591;-65
2023/01/04 07:17:19;;;;;;;5.47;2.60;;;;;;;;;;5086939;28;20043;-65
2023/01/04 07:19:45;;;;;;;4.93;2.60;;;;;;;;;;5100108;28;20746;-65
2023/01/04 07:22:11;;;;;;;4.80;2.80;;;;;;;;;;5100748;28;20036;-65
2023/01/04 07:24:38;;;;;;;5.68;2.30;;;;;;;;;;5089731;28;20051;-65
2023/01/04 07:27:04;;;;;;;7.53;2.72;;;;;;;;;;5087148;28;20138;-65
2023/01/04 07:29:30;;;;;;;6.80;2.78;;;;;;;;;;5089206;28;20048;-65
2023/01/04 07:31:56;;;;;;;6.90;1.98;;;;;;;;;;5088192;28;20422;-65
2023/01/04 07:34:24;;;;;;;4.97;2.17;;;;;;;;;;5085721;28;20043;-65
2023/01/04 07:36:50;;;;;;;4.28;1.90;;;;;;;;;;5088345;28;20067;-65
2023/01/04 07:39:17;;;;;;;4.57;1.75;;;;;;;;;;5100856;28;20044;-65
2023/01/04 07:41:43;;;;;;;3.28;1.92;;;;;;;;;;5085654;28;20048;-65
2023/01/04 07:44:10;;;;;;;3.15;1.50;;;;;;;;;;5089984;28;20131;-65
2023/01/04 07:46:36;;;;;;;4.95;2.10;;;;;;;;;;5107236;28;20397;-67
2023/01/04 07:49:03;;;;;;;4.47;2.13;;;;;;;;;;5107350;28;20486;-66
2023/01/04 07:51:29;;;;;;;4.38;2.00;;;;;;;;;;5088998;28;20050;-66
2023/01/04 07:53:55;;;;;;;6.20;2.42;;;;;;;;;;5089361;28;20085;-66
2023/01/04 07:56:21;;;;;;;6.68;2.33;;;;;;;;;;5089100;28;20047;-66
2023/01/04 07:58:47;;;;;;;4.07;1.52;;;;;;;;;;5089131;28;20477;-66
2023/01/04 08:01:17;;;;;;;5.70;2.47;;;;;;;;;;5100300;28;20039;-65
2023/01/04 08:03:47;;;;;;;5.28;1.55;;;;;;;;;;5106899;28;20126;-66
2023/01/04 08:06:13;;;;;;;6.60;2.38;;;;;;;;;;5089471;28;20051;-65
2023/01/04 08:08:39;;;;;;;4.72;1.88;;;;;;;;;;5106612;28;20043;-66
2023/01/04 08:11:07;;;;;;;5.95;1.98;;;;;;;;;;5089206;28;20502;-65
2023/01/04 08:13:33;;;;;;;3.47;1.65;;;;;;;;;;5102653;28;20120;-66
2023/01/04 08:15:59;;;;;;;3.53;1.45;;;;;;;;;;5097783;28;20081;-67
2023/01/04 08:18:25;;;;;;;3.33;1.60;;;;;;;;;;5086031;28;20062;-66
2023/01/04 08:21:00;;;;;;;6.20;2.25;;;;;;;;;;5098156;28;20048;-66
2023/01/04 08:23:26;;;;;;;4.82;1.85;;;;;;;;;;5096317;28;20040;-65
2023/01/04 08:25:52;;;;;;;3.25;1.15;;;;;;;;;;5086500;28;20081;-66
2023/01/04 08:28:18;;;;;;;2.17;1.45;;;;;;;;;;5084496;28;20489;-66
2023/01/04 08:30:44;;;;;;;4.78;2.00;;;;;;;;;;5097267;28;20047;-66
2023/01/04 08:33:16;;;;;;;4.63;1.45;;;;;;;;;;5100753;28;20063;-66
2023/01/04 08:35:42;;;;;;;2.55;1.65;;;;;;;;;;5101524;28;20044;-66
2023/01/04 08:38:08;;;;;;;4.50;1.35;;;;;;;;;;5087497;28;20040;-66
2023/01/04 08:40:34;;;;;;;4.97;1.77;;;;;;;;;;5101936;28;20052;-66
2023/01/04 08:43:00;;;;;;;1.77;1.00;;;;;;;;;;5097079;28;20046;-66
2023/01/04 08:45:26;;;;;;;2.60;1.27;;;;;;;;;;5099648;28;20047;-66
2023/01/04 08:47:52;;;;;;;4.45;1.50;;;;;;;;;;5085163;28;20050;-66
2023/01/04 08:50:19;;;;;;;3.03;0.98;;;;;;;;;;5086883;28;20474;-66
2023/01/04 08:52:45;;;;;;;3.05;1.10;;;;;;;;;;5095868;28;20059;-66
2023/01/04 08:55:11;;;;;;;1.60;0.80;;;;;;;;;;5085882;28;20079;-66
2023/01/04 08:57:37;;;;;;;2.05;0.82;;;;;;;;;;5082906;28;20043;-66
2023/01/04 09:00:04;;;;;;;4.55;1.23;;;;;;;;;;5097473;28;20405;-65
2023/01/04 09:02:30;;;;;;;2.58;0.77;;;;;;;;;;5087026;28;20044;-66
2023/01/04 09:04:58;;;;;;;2.42;1.10;;;;;;;;;;5085402;28;20040;-66
2023/01/04 09:07:33;;;;;;;3.85;1.35;;;;;;;;;;5094438;28;20058;-66
2023/01/04 09:09:59;;;;;;;4.32;1.23;;;;;;;;;;5086765;28;20036;-66
2023/01/04 09:12:25;;;;;;;5.25;1.98;;;;;;;;;;5086235;28;20402;-66
2023/01/04 09:14:51;;;;;;;7.45;1.88;;;;;;;;;;5085423;28;22295;-66
2023/01/04 09:17:17;;;;;;;7.05;1.95;;;;;;;;;;5097229;28;20044;-65
2023/01/04 09:19:43;;;;;;;4.35;1.98;;;;;;;;;;5095169;28;20219;-66
2023/01/04 09:22:09;;;;;;;7.28;2.08;;;;;;;;;;5095265;28;20077;-66
2023/01/04 09:24:36;;;;;;;6.15;1.83;;;;;;;;;;5085148;28;20134;-65
2023/01/04 09:27:03;;;;;;;5.43;2.22;;;;;;;;;;5084422;28;20040;-66
2023/01/04 09:29:29;;;;;;;6.38;1.77;;;;;;;;;;5100674;28;20221;-65
2023/01/04 09:31:55;;;;;;;7.03;2.47;;;;;;;;;;5083574;28;20044;-65
2023/01/04 09:34:21;;;;;;;7.78;2.33;;;;;;;;;;5085293;28;20046;-65
2023/01/04 09:36:48;;;;;;;9.35;2.42;;;;;;;;;;5084542;28;20043;-65
2023/01/04 09:39:14;;;;;;;8.20;2.50;;;;;;;;;;5078191;28;20048;-66
2023/01/04 09:41:55;;;;;;;6.88;2.67;;;;;;;;;;5086107;28;20050;-62
2023/01/04 09:44:24;;;;;;;7.13;2.75;;;;;;;;;;5095653;28;20040;-64
2023/01/04 09:47:03;;;;;;;8.68;2.53;;;;;;;;;;5086098;28;20040;-64
2023/01/04 09:49:37;;;;;;;12.02;3.17;;;;;;;;;;5093255;28;20032;-68
2023/01/04 09:52:14;;;;;;;9.88;3.13;;;;;;;;;;5086486;28;20430;-64
2023/01/04 09:54:44;;;;;;;11.02;3.15;;;;;;;;;;5090363;28;20451;-63
2023/01/04 09:57:37;;;;;;;12.68;3.28;;;;;;;;;;5085243;28;20393;-64
2023/01/04 10:00:06;;;;;;;11.43;2.47;;;;;;;;;;5081684;28;20082;-63
2023/01/04 10:02:40;;;;;;;13.20;2.78;;;;;;;;;;5076894;28;20397;-63
2023/01/04 10:05:06;;;;;;;9.27;3.17;;;;;;;;;;5094281;28;20520;-63
2023/01/04 10:07:33;;;;;;;15.40;3.17;;;;;;;;;;5092571;28;20435;-63
2023/01/04 10:10:00;;;;;;;12.00;3.30;;;;;;;;;;5084941;28;20036;-63
2023/01/04 10:12:51;;;;;;;17.80;4.25;;;;;;;;;;5097593;28;20040;-63
2023/01/04 10:15:26;;;;;;;17.80;3.90;;;;;;;;;;5088980;28;20039;-63
2023/01/04 10:18:13;;;;;;;19.08;4.55;;;;;;;;;;5093345;28;20093;-63
2023/01/04 10:20:49;;;;;;;10.80;3.53;;;;;;;;;;5090908;28;20037;-63
2023/01/04 10:23:25;;;;;;;11.48;3.58;;;;;;;;;;5082328;28;20048;-63
2023/01/04 10:25:54;;;;;;;36.08;4.45;;;;;;;;;;5093536;28;20271;-63
2023/01/04 10:28:30;;;;;;;11.63;3.35;;;;;;;;;;5095403;28;20047;-63
2023/01/04 10:30:56;;;;;;;15.15;4.10;;;;;;;;;;5094181;28;20401;-63
2023/01/04 10:33:30;;;;;;;12.10;3.45;;;;;;;;;;5094646;28;20052;-63
2023/01/04 10:35:56;;;;;;;16.27;3.28;;;;;;;;;;5094591;28;20360;-63
2023/01/04 10:38:27;;;;;;;16.08;3.95;;;;;;;;;;5098586;28;20164;-63
2023/01/04 10:40:54;;;;;;;15.98;4.40;;;;;;;;;;5082658;28;20074;-63
2023/01/04 10:43:20;;;;;;;21.98;4.60;;;;;;;;;;5083277;28;20050;-63
2023/01/04 10:46:06;;;;;;;18.83;3.78;;;;;;;;;;5096092;28;20024;-63
2023/01/04 10:48:32;;;;;;;21.92;4.25;;;;;;;;;;5082953;28;20427;-63
2023/01/04 10:51:02;;;;;;;22.40;5.18;;;;;;;;;;5091172;28;20444;-63
2023/01/04 10:53:47;;;;;;;20.67;4.20;;;;;;;;;;5092242;28;20208;-63
2023/01/04 10:56:20;;;;;;;18.52;3.80;;;;;;;;;;5083540;28;20043;-64
2023/01/04 10:58:54;;;;;;;19.70;4.82;;;;;;;;;;5094943;28;20378;-63
2023/01/04 11:01:24;;;;;;;28.30;5.63;;;;;;;;;;5091148;28;20044;-63
2023/01/04 11:03:58;;;;;;;23.27;5.15;;;;;;;;;;5091807;28;20323;-63
2023/01/04 11:06:27;;;;;;;24.02;5.03;;;;;;;;;;5098963;28;20050;-63
2023/01/04 11:08:57;;;;;;;30.15;6.20;;;;;;;;;;5092191;28;20093;-62
2023/01/04 11:11:29;;;;;;;27.25;6.18;;;;;;;;;;5084089;28;20327;-62
2023/01/04 11:13:55;;;;;;;21.83;5.82;;;;;;;;;;5096211;28;20035;-63
2023/01/04 11:16:21;;;;;;;19.30;5.55;;;;;;;;;;5093054;28;20035;-68
2023/01/04 11:18:49;;;;;;;22.35;5.13;;;;;;;;;;5082906;28;20044;-63
2023/01/04 11:21:16;;;;;;;17.58;4.97;;;;;;;;;;5092708;28;20051;-64
2023/01/04 11:23:42;;;;;;;13.63;3.92;;;;;;;;;;5090905;28;20040;-64
2023/01/04 11:26:12;;;;;;;22.98;4.25;;;;;;;;;;5090973;28;20383;-64
2023/01/04 11:28:38;;;;;;;18.80;4.65;;;;;;;;;;5091046;28;20145;-64
2023/01/04 11:31:08;;;;;;;11.45;3.15;;;;;;;;;;5089236;28;20502;-64
2023/01/04 11:33:52;;;;;;;12.43;3.65;;;;;;;;;;5086970;28;20444;-63
2023/01/04 11:36:31;;;;;;;14.23;4.13;;;;;;;;;;5081042;28;20174;-63
2023/01/04 11:38:57;;;;;;;17.02;4.07;;;;;;;;;;5093454;28;20070;-63
2023/01/04 11:41:24;;;;;;;19.45;4.68;;;;;;;;;;5085048;28;20237;-63
2023/01/04 11:43:57;;;;;;;26.85;5.50;;;;;;;;;;5095974;28;20051;-63
2023/01/04 11:46:24;;;;;;;27.70;6.18;;;;;;;;;;5084571;28;20039;-63
2023/01/04 11:48:51;;;;;;;20.88;5.45;;;;;;;;;;5093768;28;20397;-63
2023/01/04 11:51:19;;;;;;;16.33;4.95;;;;;;;;;;5076819;28;20044;-63
2023/01/04 11:53:45;;;;;;;22.85;6.43;;;;;;;;;;5092688;28;20043;-63
2023/01/04 11:56:12;;;;;;;21.15;5.07;;;;;;;;;;5078270;28;20054;-63
2023/01/04 11:58:38;;;;;;;15.88;4.13;;;;;;;;;;5086675;28;20382;-63
2023/01/04 12:01:04;;;;;;;15.27;4.82;;;;;;;;;;5075757;28;20045;-63
2023/01/04 12:03:31;;;;;;;18.05;4.95;;;;;;;;;;5051409;28;20044;-63
2023/01/04 12:05:57;;;;;;;19.45;4.55;;;;;;;;;;5051265;28;20143;-63
2023/01/04 12:08:29;;;;;;;14.27;3.55;;;;;;;;;;5068886;28;20036;-63
2023/01/04 12:10:55;;;;;;;16.27;4.50;;;;;;;;;;5064680;28;20067;-63
2023/01/04 12:13:22;;;;;;;18.77;4.40;;;;;;;;;;5067584;28;20047;-63
2023/01/04 12:15:56;;;;;;;14.85;3.47;;;;;;;;;;5069484;28;20040;-63
2023/01/04 12:18:25;;;;;;;14.27;3.67;;;;;;;;;;5070040;28;20048;-63
2023/01/04 12:20:51;;;;;;;15.98;4.20;;;;;;;;;;5071121;28;20086;-63
2023/01/04 12:23:17;;;;;;;16.02;4.30;;;;;;;;;;5069735;28;20398;-62
2023/01/04 12:25:44;;;;;;;12.65;3.22;;;;;;;;;;5088846;28;20357;-63
2023/01/04 12:28:29;;;;;;;13.15;3.83;;;;;;;;;;5071137;28;20051;-63
2023/01/04 12:31:15;;;;;;;11.55;3.30;;;;;;;;;;5088862;28;20036;-63
2023/01/04 12:33:41;;;;;;;11.07;2.45;;;;;;;;;;5074162;28;20108;-63
2023/01/04 12:36:11;;;;;;;10.45;2.75;;;;;;;;;;5108553;28;20058;-63
2023/01/04 12:38:58;;;;;;;14.75;3.08;;;;;;;;;;5109526;28;20039;-63
2023/01/04 12:41:33;;;;;;;11.82;3.15;;;;;;;;;;5101553;28;20089;-63
2023/01/04 12:44:00;;;;;;;8.90;2.88;;;;;;;;;;5077557;28;20040;-63
2023/01/04 12:49:26;;;;;;;9.10;2.38;;;;;;;;;;5068288;28;20040;-63
2023/01/04 12:52:07;;;;;;;9.95;2.35;;;;;;;;;;5050884;28;20391;-63
2023/01/04 12:54:50;;;;;;;5.55;1.98;;;;;;;;;;5076060;28;20048;-63
2023/01/04 12:57:16;;;;;;;11.05;2.67;;;;;;;;;;5049811;28;20051;-63
2023/01/04 12:59:57;;;;;;;11.40;2.92;;;;;;;;;;5067947;28;20048;-63
2023/01/04 13:02:23;;;;;;;9.07;2.55;;;;;;;;;;5067000;28;20055;-63
2023/01/04 13:04:51;;;;;;;10.10;3.25;;;;;;;;;;5073232;28;20052;-63
2023/01/04 13:07:21;;;;;;;8.77;2.63;;;;;;;;;;5054282;28;20040;-63
2023/01/04 13:09:58;;;;;;;9.15;2.60;;;;;;;;;;5066943;28;20391;-63
2023/01/04 13:12:42;;;;;;;16.13;3.50;;;;;;;;;;5066229;28;20445;-63
2023/01/04 13:15:19;;;;;;;13.45;2.90;;;;;;;;;;5068710;28;20048;-63
2023/01/04 13:17:45;;;;;;;7.97;2.22;;;;;;;;;;5067359;28;20040;-63
2023/01/04 13:20:16;;;;;;;13.93;2.75;;;;;;;;;;5079755;28;20397;-63
2023/01/04 13:22:47;;;;;;;12.43;2.95;;;;;;;;;;5068537;28;20047;-63
2023/01/04 13:25:15;;;;;;;14.90;2.65;;;;;;;;;;5067285;28;20215;-63
2023/01/04 13:27:54;;;;;;;13.13;3.15;;;;;;;;;;5055494;28;20048;-63
2023/01/04 13:30:33;;;;;;;10.95;2.67;;;;;;;;;;5089215;28;20061;-63
2023/01/04 13:32:59;;;;;;;12.38;3.58;;;;;;;;;;5107592;28;20428;-63
2023/01/04 13:35:25;;;;;;;13.75;3.92;;;;;;;;;;5093309;28;20486;-63
2023/01/04 13:37:51;;;;;;;16.15;3.58;;;;;;;;;;5086591;28;20494;-63
2023/01/04 13:40:34;;;;;;;15.30;4.18;;;;;;;;;;5103859;28;20078;-63
2023/01/04 13:43:19;;;;;;;15.70;4.45;;;;;;;;;;5108131;28;20036;-63
2023/01/04 13:45:45;;;;;;;17.98;3.95;;;;;;;;;;5089094;28;20047;-63
2023/01/04 13:48:16;;;;;;;11.45;2.88;;;;;;;;;;5108468;28;20523;-63
2023/01/04 13:50:46;;;;;;;14.80;3.15;;;;;;;;;;5090349;28;20106;-63
2023/01/04 13:53:25;;;;;;;16.63;4.22;;;;;;;;;;5084572;28;20052;-63
2023/01/04 13:56:01;;;;;;;19.30;5.07;;;;;;;;;;5094586;28;20517;-63
2023/01/04 13:58:29;;;;;;;13.13;3.33;;;;;;;;;;5082884;28;20043;-63
2023/01/04 14:00:57;;;;;;;10.52;3.53;;;;;;;;;;5107119;28;20122;-64
2023/01/04 14:03:30;;;;;;;15.30;3.10;;;;;;;;;;5089362;28;20297;-63
2023/01/04 14:06:02;;;;;;;17.85;4.60;;;;;;;;;;5074007;28;20044;-63
2023/01/04 14:08:36;;;;;;;16.70;3.55;;;;;;;;;;5060377;28;20055;-63
2023/01/04 14:11:09;;;;;;;20.50;4.07;;;;;;;;;;5051503;28;20458;-63
2023/01/04 14:13:35;;;;;;;16.70;5.38;;;;;;;;;;5063582;28;20461;-63
2023/01/04 14:16:19;;;;;;;19.60;6.18;;;;;;;;;;5070807;28;20047;-63
2023/01/04 14:18:45;;;;;;;22.88;8.05;;;;;;;;;;5071596;28;20044;-63
2023/01/04 14:21:15;;;;;;;25.33;10.38;;;;;;;;;;5062893;28;20043;-63
2023/01/04 14:23:41;;;;;;;37.65;10.82;;;;;;;;;;5064588;28;20352;-63
2023/01/04 14:26:27;;;;;;;23.95;8.15;;;;;;;;;;5073270;28;20086;-63
2023/01/04 14:28:53;;;;;;;23.98;7.22;;;;;;;;;;5084008;28;20471;-63
2023/01/04 14:31:20;;;;;;;22.90;7.13;;;;;;;;;;5067589;28;20047;-63
2023/01/04 14:33:50;;;;;;;14.93;5.95;;;;;;;;;;5066503;28;20368;-63
2023/01/04 14:36:27;;;;;;;19.65;5.22;;;;;;;;;;5050053;28;20060;-63
2023/01/04 14:38:59;;;;;;;20.85;5.43;;;;;;;;;;5050769;28;20243;-62
2023/01/04 14:41:25;;;;;;;;;;;;;;;;;;5074220;28;20518;-62
2023/01/04 14:43:52;;;;;;;21.38;5.28;;;;;;;;;;5080360;28;19920;-62
2023/01/04 14:46:19;;;;;;;20.33;5.05;;;;;;;;;;5078502;28;20047;-62
2023/01/04 14:48:45;;;;;;;17.13;5.13;;;;;;;;;;5083002;28;20063;-63
2023/01/04 14:51:15;;;;;;;20.30;5.15;;;;;;;;;;5072280;28;20573;-62
2023/01/04 14:53:41;;;;;;;14.35;5.00;;;;;;;;;;5066478;28;20074;-63
2023/01/04 14:56:10;;;;;;;19.98;5.00;;;;;;;;;;5052552;28;20038;-66
2023/01/04 14:58:36;;;;;;;19.27;5.50;;;;;;;;;;5080394;28;20085;-62
2023/01/04 15:01:02;;;;;;;12.10;4.32;;;;;;;;;;5060628;28;20036;-64
2023/01/04 15:03:28;;;;;;;22.42;5.28;;;;;;;;;;5057245;28;20540;-63
2023/01/04 15:05:54;;;;;;;14.55;4.55;;;;;;;;;;5059646;28;20274;-63
2023/01/04 15:08:20;;;;;;;15.65;4.07;;;;;;;;;;5067043;28;20486;-63
2023/01/04 15:10:47;;;;;;;17.52;4.40;;;;;;;;;;5076035;28;20048;-63
2023/01/04 15:13:13;;;;;;;14.35;3.53;;;;;;;;;;5087326;28;20075;-63
2023/01/04 15:15:39;;;;;;;14.10;4.35;;;;;;;;;;5082054;28;20127;-64
2023/01/04 15:18:05;;;;;;;20.75;3.78;;;;;;;;;;5076424;28;20119;-63
2023/01/04 15:20:31;;;;;;;18.70;4.55;;;;;;;;;;5079202;28;20047;-63
2023/01/04 15:22:57;;;;;;;15.20;4.15;;;;;;;;;;5082963;28;20040;-63
2023/01/04 15:25:25;;;;;;;12.20;2.97;;;;;;;;;;5079388;28;20050;-63
2023/01/04 15:27:51;;;;;;;19.88;5.03;;;;;;;;;;5079352;28;20051;-63
2023/01/04 15:30:17;;;;;;;16.45;4.38;;;;;;;;;;5069630;28;20048;-63
2023/01/04 15:32:43;;;;;;;16.25;4.43;;;;;;;;;;5057811;28;20056;-63
2023/01/04 15:35:10;;;;;;;17.83;3.70;;;;;;;;;;5087069;28;20047;-64
2023/01/04 15:37:36;;;;;;;28.88;5.07;;;;;;;;;;5075841;28;20055;-63
2023/01/04 15:40:02;;;;;;;14.18;3.88;;;;;;;;;;5070183;28;20547;-66
2023/01/04 15:45:36;;;;;;;17.75;4.40;;;;;;;;;;5060835;28;20064;-66